createdAt,value
2018-05-27T00:03:49.079Z,15.70
2018-05-27T00:08:50.404Z,15.70
2018-05-27T00:13:52.482Z,15.60
2018-05-27T00:18:53.775Z,15.50
2018-05-27T00:23:55.063Z,15.50
2018-05-27T00:28:56.375Z,15.60
2018-05-27T00:33:57.668Z,15.50
2018-05-27T00:38:58.977Z,15.60
2018-05-27T00:44:00.278Z,15.60
2018-05-27T00:49:02.332Z,15.60
2018-05-27T00:54:03.666Z,15.60
2018-05-27T00:59:04.987Z,15.50
2018-05-27T01:04:06.291Z,15.60
2018-05-27T01:09:07.619Z,15.50
2018-05-27T01:14:08.924Z,15.60
2018-05-27T01:19:10.271Z,15.70
2018-05-27T01:24:11.688Z,15.70
2018-05-27T01:29:12.982Z,15.70
2018-05-27T01:34:14.305Z,15.60
2018-05-27T01:39:15.604Z,15.50
2018-05-27T01:44:16.924Z,15.40
2018-05-27T01:49:18.228Z,15.40
2018-05-27T01:54:19.519Z,15.40
2018-05-27T01:59:20.811Z,15.40
2018-05-27T02:04:22.093Z,15.50
2018-05-27T02:09:23.412Z,15.60
2018-05-27T02:14:24.694Z,15.60
2018-05-27T02:19:25.994Z,15.60
2018-05-27T02:24:27.290Z,15.50
2018-05-27T02:29:29.313Z,15.50
2018-05-27T02:34:30.583Z,15.50
2018-05-27T02:39:31.891Z,15.70
2018-05-27T02:44:33.930Z,15.80
2018-05-27T02:49:35.240Z,15.70
2018-05-27T02:54:37.250Z,15.80
2018-05-27T02:59:38.534Z,15.70
2018-05-27T03:04:39.815Z,15.70
2018-05-27T03:09:41.092Z,15.80
2018-05-27T03:14:43.151Z,15.90
2018-05-27T03:19:44.499Z,15.90
2018-05-27T03:24:45.776Z,15.90
2018-05-27T03:29:47.084Z,15.80
2018-05-27T03:34:49.136Z,15.40
2018-05-27T03:39:50.427Z,15.40
2018-05-27T03:44:52.464Z,15.30
2018-05-27T03:49:53.771Z,15.30
2018-05-27T03:54:55.053Z,15.40
2018-05-27T03:59:56.339Z,15.40
2018-05-27T04:05:10.014Z,15.60
2018-05-27T04:10:11.267Z,15.70
2018-05-27T04:15:12.542Z,15.90
2018-05-27T04:20:13.836Z,16.20
2018-05-27T04:25:15.872Z,16.40
2018-05-27T04:30:17.972Z,16.40
2018-05-27T04:35:20.312Z,16.60
2018-05-27T04:40:22.495Z,16.70
2018-05-27T04:45:24.529Z,16.80
2018-05-27T04:50:25.831Z,16.90
2018-05-27T04:55:27.168Z,16.90
2018-05-27T05:00:28.472Z,17.10
2018-05-27T05:05:29.763Z,17.30
2018-05-27T05:10:31.054Z,17.40
2018-05-27T05:15:32.343Z,17.50
2018-05-27T05:20:33.623Z,17.50
2018-05-27T05:25:35.661Z,17.70
2018-05-27T05:30:36.951Z,17.70
2018-05-27T05:35:38.240Z,17.80
2018-05-27T05:40:39.559Z,17.90
2018-05-27T05:45:40.844Z,17.90
2018-05-27T05:50:42.891Z,18.30
2018-05-27T05:55:44.172Z,18.30
2018-05-27T06:00:45.455Z,18.60
2018-05-27T06:05:47.486Z,19.10
2018-05-27T06:10:48.778Z,19.00
2018-05-27T06:15:50.072Z,19.30
2018-05-27T06:20:52.095Z,19.80
2018-05-27T06:25:53.386Z,19.70
2018-05-27T06:30:54.667Z,20.00
2018-05-27T06:35:55.955Z,20.30
2018-05-27T06:40:58.001Z,20.70
2018-05-27T06:45:59.294Z,20.70
2018-05-27T06:51:00.596Z,20.70
2018-05-27T06:56:01.875Z,20.90
2018-05-27T07:01:03.184Z,21.00
2018-05-27T07:06:05.233Z,21.50
2018-05-27T07:11:06.498Z,21.40
2018-05-27T07:16:07.757Z,21.50
2018-05-27T07:21:09.076Z,21.70
2018-05-27T07:26:10.398Z,21.90
2018-05-27T07:31:11.691Z,22.10
2018-05-27T07:36:13.003Z,22.20
2018-05-27T07:41:14.286Z,22.30
2018-05-27T07:46:15.587Z,22.60
2018-05-27T07:51:17.630Z,22.80
2018-05-27T07:56:18.895Z,22.70
2018-05-27T08:01:20.195Z,22.60
2018-05-27T08:06:21.520Z,22.90
2018-05-27T08:11:22.851Z,23.50
2018-05-27T08:16:24.140Z,24.10
2018-05-27T08:21:25.535Z,24.70
2018-05-27T08:26:26.831Z,24.80
2018-05-27T08:31:28.155Z,24.80
2018-05-27T08:36:29.413Z,25.10
2018-05-27T08:41:30.725Z,25.40
2018-05-27T08:46:32.068Z,25.90
2018-05-27T08:51:34.136Z,27.40
2018-05-27T08:56:35.463Z,27.30
2018-05-27T09:01:37.491Z,29.00
2018-05-27T09:06:38.824Z,29.00
2018-05-27T09:11:40.070Z,29.40
2018-05-27T09:16:42.134Z,29.20
2018-05-27T09:21:43.467Z,29.20
2018-05-27T09:26:44.736Z,29.10
2018-05-27T09:31:46.008Z,29.40
2018-05-27T09:36:48.097Z,29.80
2018-05-27T09:41:49.408Z,29.70
2018-05-27T09:46:50.713Z,30.00
2018-05-27T09:51:51.974Z,31.00
2018-05-27T09:56:53.222Z,31.40
2018-05-27T10:01:55.313Z,31.30
2018-05-27T10:06:56.557Z,31.30
2018-05-27T10:11:57.823Z,31.00
2018-05-27T10:16:59.082Z,31.60
2018-05-27T10:22:00.384Z,32.30
2018-05-27T10:27:01.636Z,32.10
2018-05-27T10:32:02.912Z,31.60
2018-05-27T10:37:04.183Z,32.10
2018-05-27T10:42:05.531Z,32.40
2018-05-27T10:47:07.603Z,32.50
2018-05-27T10:52:08.925Z,32.50
2018-05-27T10:57:11.159Z,32.30
2018-05-27T11:02:12.451Z,33.10
2018-05-27T11:07:13.764Z,34.20
2018-05-27T11:12:15.055Z,31.00
2018-05-27T11:17:17.124Z,35.40
2018-05-27T11:22:18.380Z,35.30
2018-05-27T11:27:19.648Z,35.70
2018-05-27T11:32:20.909Z,35.40
2018-05-27T11:37:22.163Z,35.40
2018-05-27T11:42:23.460Z,36.00
2018-05-27T11:47:24.756Z,37.40
2018-05-27T11:52:26.064Z,37.50
2018-05-27T11:57:27.372Z,37.90
2018-05-27T12:02:28.702Z,38.10
2018-05-27T12:07:30.000Z,38.90
2018-05-27T12:12:31.263Z,39.40
2018-05-27T12:17:32.539Z,39.20
2018-05-27T12:22:33.831Z,39.90
2018-05-27T12:27:35.916Z,40.00
2018-05-27T12:32:37.171Z,40.00
2018-05-27T12:37:38.473Z,40.20
2018-05-27T12:42:40.543Z,39.00
2018-05-27T12:47:41.851Z,38.90
2018-05-27T12:52:43.123Z,37.90
2018-05-27T12:57:45.135Z,37.60
2018-05-27T13:02:46.471Z,37.50
2018-05-27T13:07:47.803Z,37.60
2018-05-27T13:12:49.855Z,37.00
2018-05-27T13:17:51.131Z,37.00
2018-05-27T13:22:52.474Z,36.90
2018-05-27T13:27:54.328Z,37.10
2018-05-27T13:32:55.645Z,37.20
2018-05-27T13:37:56.915Z,37.20
2018-05-27T13:42:58.172Z,37.20
2018-05-27T13:47:59.434Z,37.20
2018-05-27T13:53:00.709Z,37.00
2018-05-27T13:58:01.990Z,36.10
2018-05-27T14:03:03.283Z,35.50
2018-05-27T14:08:04.594Z,35.10
2018-05-27T14:13:05.922Z,34.60
2018-05-27T14:18:07.205Z,33.90
2018-05-27T14:23:08.496Z,33.50
2018-05-27T14:28:09.797Z,32.80
2018-05-27T14:33:11.113Z,32.60
2018-05-27T14:38:12.375Z,32.20
2018-05-27T14:43:13.655Z,31.50
2018-05-27T14:48:14.932Z,31.40
2018-05-27T14:53:16.200Z,31.10
2018-05-27T14:58:18.207Z,30.70
2018-05-27T15:03:19.484Z,30.70
2018-05-27T15:08:20.763Z,30.60
2018-05-27T15:13:22.096Z,30.30
2018-05-27T15:18:23.432Z,30.20
2018-05-27T15:23:24.721Z,30.10
2018-05-27T15:28:26.740Z,30.10
2018-05-27T15:33:28.002Z,30.10
2018-05-27T15:38:29.299Z,30.40
2018-05-27T15:43:30.560Z,30.70
2018-05-27T15:48:31.891Z,31.60
2018-05-27T15:53:33.955Z,33.80
2018-05-27T15:58:35.228Z,33.70
2018-05-27T16:03:36.518Z,35.50
2018-05-27T16:08:37.789Z,34.40
2018-05-27T16:13:39.831Z,33.30
2018-05-27T16:18:41.131Z,33.20
2018-05-27T16:23:42.422Z,34.20
2018-05-27T16:28:43.685Z,36.60
2018-05-27T16:33:44.962Z,39.10
2018-05-27T16:38:46.971Z,40.10
2018-05-27T16:43:48.275Z,40.10
2018-05-27T16:48:50.317Z,38.60
2018-05-27T16:53:51.595Z,38.60
2018-05-27T16:58:52.860Z,38.40
2018-05-27T17:03:54.164Z,38.80
2018-05-27T17:08:55.430Z,37.90
2018-05-27T17:13:56.699Z,37.40
2018-05-27T17:18:57.963Z,37.00
2018-05-27T17:24:00.001Z,36.80
2018-05-27T17:29:01.292Z,36.80
2018-05-27T17:34:02.593Z,35.30
2018-05-27T17:39:04.756Z,34.30
2018-05-27T17:44:06.087Z,32.80
2018-05-27T17:49:07.367Z,31.40
2018-05-27T17:54:08.632Z,30.30
2018-05-27T17:59:10.657Z,28.00
2018-05-27T18:04:12.016Z,27.90
2018-05-27T18:09:13.274Z,27.10
2018-05-27T18:14:14.573Z,26.60
2018-05-27T18:19:16.653Z,25.70
2018-05-27T18:24:17.909Z,25.70
2018-05-27T18:29:19.188Z,25.30
2018-05-27T18:34:20.473Z,24.90
2018-05-27T18:39:21.747Z,24.60
2018-05-27T18:44:23.028Z,24.30
2018-05-27T18:49:25.076Z,23.50
2018-05-27T18:54:26.387Z,23.50
2018-05-27T18:59:27.692Z,23.10
2018-05-27T19:04:28.988Z,22.70
2018-05-27T19:09:30.325Z,22.30
2018-05-27T19:14:31.600Z,22.00
2018-05-27T19:19:32.928Z,21.70
2018-05-27T19:24:34.249Z,21.30
2018-05-27T19:29:35.549Z,21.10
2018-05-27T19:34:36.819Z,21.00
2018-05-27T19:39:38.088Z,20.90
2018-05-27T19:44:39.392Z,20.70
2018-05-27T19:49:42.161Z,20.30
2018-05-27T19:54:43.496Z,20.20
2018-05-27T19:59:44.796Z,20.00
2018-05-27T20:04:46.084Z,19.80
2018-05-27T20:09:47.416Z,19.70
2018-05-27T20:14:48.688Z,19.80
2018-05-27T20:19:49.983Z,19.90
2018-05-27T20:24:51.282Z,20.00
2018-05-27T20:29:52.560Z,20.20
2018-05-27T20:34:53.863Z,20.40
2018-05-27T20:39:55.184Z,20.50
2018-05-27T20:44:56.470Z,20.50
2018-05-27T20:49:57.787Z,20.40
2018-05-27T20:54:59.024Z,20.30
2018-05-27T21:00:00.308Z,20.20
2018-05-27T21:05:02.345Z,20.00
2018-05-27T21:10:03.656Z,20.00
2018-05-27T21:15:05.704Z,19.80
2018-05-27T21:20:06.975Z,19.80
2018-05-27T21:25:08.241Z,19.70
2018-05-27T21:30:09.518Z,19.60
2018-05-27T21:35:11.540Z,19.70
2018-05-27T21:40:12.838Z,19.70
2018-05-27T21:45:14.104Z,19.80
2018-05-27T21:50:15.401Z,19.80
2018-05-27T21:55:16.675Z,19.60
2018-05-27T22:00:18.728Z,19.20
2018-05-27T22:05:20.023Z,19.20
2018-05-27T22:10:21.300Z,19.00
2018-05-27T22:15:22.594Z,18.90
2018-05-27T22:20:23.871Z,18.70
2018-05-27T22:25:25.142Z,18.60
2018-05-27T22:30:26.399Z,18.40
2018-05-27T22:35:27.683Z,18.30
2018-05-27T22:40:29.675Z,18.10
2018-05-27T22:45:31.694Z,17.90
2018-05-27T22:50:32.994Z,17.90
2018-05-27T22:55:34.242Z,17.90
2018-05-27T23:00:35.532Z,17.80
2018-05-27T23:05:36.859Z,17.70
2018-05-27T23:10:38.895Z,17.40
2018-05-27T23:15:40.195Z,17.40
2018-05-27T23:20:41.484Z,17.30
2018-05-27T23:25:43.528Z,17.10
2018-05-27T23:30:44.818Z,17.10
2018-05-27T23:35:46.853Z,17.20
2018-05-27T23:40:48.134Z,17.10
2018-05-27T23:45:49.431Z,17.10
2018-05-27T23:50:51.490Z,17.10
2018-05-27T23:55:53.467Z,17.00
